sensor_id;sensor_type;location;lat;lon;timestamp;pressure;altitude;pressure_sealevel;temperature;humidity
77574;BME280;66710;48.868;9.080;2023-07-31T00:00:00;98066.13;;;14.95;71.72
77574;BME280;66710;48.868;9.080;2023-07-31T00:02:25;98074.28;;;14.81;73.05
77574;BME280;66710;48.868;9.080;2023-07-31T00:04:51;98068.22;;;14.65;73.99
77574;BME280;66710;48.868;9.080;2023-07-31T00:07:16;98068.06;;;14.56;74.78
77574;BME280;66710;48.868;9.080;2023-07-31T00:09:41;98067.72;;;14.63;74.19
77574;BME280;66710;48.868;9.080;2023-07-31T00:12:07;98070.63;;;14.86;72.82
77574;BME280;66710;48.868;9.080;2023-07-31T00:14:32;98077.03;;;14.81;73.69
77574;BME280;66710;48.868;9.080;2023-07-31T00:16:58;98075.00;;;14.49;75.24
77574;BME280;66710;48.868;9.080;2023-07-31T00:19:23;98078.28;;;14.51;75.59
77574;BME280;66710;48.868;9.080;2023-07-31T00:21:48;98074.06;;;14.77;73.46
77574;BME280;66710;48.868;9.080;2023-07-31T00:24:14;98080.78;;;14.85;72.99
77574;BME280;66710;48.868;9.080;2023-07-31T00:26:39;98075.25;;;14.71;73.45
77574;BME280;66710;48.868;9.080;2023-07-31T00:29:04;98080.06;;;14.60;74.26
77574;BME280;66710;48.868;9.080;2023-07-31T00:31:30;98085.59;;;14.55;74.69
77574;BME280;66710;48.868;9.080;2023-07-31T00:33:55;98082.47;;;14.43;74.65
77574;BME280;66710;48.868;9.080;2023-07-31T00:36:20;98081.31;;;14.30;75.31
77574;BME280;66710;48.868;9.080;2023-07-31T00:38:45;98087.97;;;14.43;75.06
77574;BME280;66710;48.868;9.080;2023-07-31T00:41:11;98082.84;;;14.36;75.37
77574;BME280;66710;48.868;9.080;2023-07-31T00:43:36;98086.50;;;14.32;75.47
77574;BME280;66710;48.868;9.080;2023-07-31T00:46:01;98079.44;;;14.26;75.61
77574;BME280;66710;48.868;9.080;2023-07-31T00:48:27;98078.41;;;14.21;75.92
77574;BME280;66710;48.868;9.080;2023-07-31T00:50:52;98082.00;;;14.17;76.07
77574;BME280;66710;48.868;9.080;2023-07-31T00:53:18;98073.13;;;14.06;76.65
77574;BME280;66710;48.868;9.080;2023-07-31T00:55:44;98069.00;;;14.09;76.49
77574;BME280;66710;48.868;9.080;2023-07-31T00:58:09;98070.66;;;14.04;76.73
77574;BME280;66710;48.868;9.080;2023-07-31T01:00:35;98071.06;;;14.17;76.68
77574;BME280;66710;48.868;9.080;2023-07-31T01:03:00;98061.88;;;14.27;75.58
77574;BME280;66710;48.868;9.080;2023-07-31T01:08:24;98067.06;;;14.09;76.19
77574;BME280;66710;48.868;9.080;2023-07-31T01:11:00;98054.78;;;14.07;76.43
77574;BME280;66710;48.868;9.080;2023-07-31T01:13:28;98050.88;;;13.89;77.21
77574;BME280;66710;48.868;9.080;2023-07-31T01:15:53;98053.16;;;13.81;77.98
77574;BME280;66710;48.868;9.080;2023-07-31T01:18:19;98055.78;;;13.92;77.70
77574;BME280;66710;48.868;9.080;2023-07-31T01:20:48;98051.66;;;13.94;77.60
77574;BME280;66710;48.868;9.080;2023-07-31T01:26:19;98039.72;;;14.04;77.12
77574;BME280;66710;48.868;9.080;2023-07-31T01:28:56;98028.75;;;14.04;77.38
77574;BME280;66710;48.868;9.080;2023-07-31T01:31:26;98036.78;;;14.19;76.91
77574;BME280;66710;48.868;9.080;2023-07-31T01:33:53;98032.84;;;14.26;76.78
77574;BME280;66710;48.868;9.080;2023-07-31T01:36:20;98032.03;;;14.25;76.99
77574;BME280;66710;48.868;9.080;2023-07-31T01:38:45;98026.28;;;14.27;76.98
77574;BME280;66710;48.868;9.080;2023-07-31T01:41:10;98027.72;;;14.38;76.47
77574;BME280;66710;48.868;9.080;2023-07-31T01:43:36;98025.91;;;14.33;76.94
77574;BME280;66710;48.868;9.080;2023-07-31T01:46:01;98022.66;;;14.31;76.98
77574;BME280;66710;48.868;9.080;2023-07-31T01:48:26;98025.00;;;14.38;76.37
77574;BME280;66710;48.868;9.080;2023-07-31T01:50:52;98015.75;;;14.34;76.27
77574;BME280;66710;48.868;9.080;2023-07-31T01:53:17;98015.88;;;14.43;76.05
77574;BME280;66710;48.868;9.080;2023-07-31T01:55:43;98008.19;;;14.45;75.48
77574;BME280;66710;48.868;9.080;2023-07-31T01:58:09;98009.91;;;14.40;76.27
77574;BME280;66710;48.868;9.080;2023-07-31T02:00:35;98005.81;;;14.38;76.11
77574;BME280;66710;48.868;9.080;2023-07-31T02:03:00;98006.44;;;14.35;76.67
77574;BME280;66710;48.868;9.080;2023-07-31T02:05:25;98009.47;;;14.33;76.37
77574;BME280;66710;48.868;9.080;2023-07-31T02:07:51;97998.34;;;14.25;76.89
77574;BME280;66710;48.868;9.080;2023-07-31T02:10:16;97999.97;;;14.26;76.93
77574;BME280;66710;48.868;9.080;2023-07-31T02:12:42;97999.81;;;14.36;76.15
77574;BME280;66710;48.868;9.080;2023-07-31T02:15:07;97988.34;;;14.34;76.19
77574;BME280;66710;48.868;9.080;2023-07-31T02:17:32;97990.88;;;14.30;76.33
77574;BME280;66710;48.868;9.080;2023-07-31T02:19:58;97991.44;;;14.27;76.56
77574;BME280;66710;48.868;9.080;2023-07-31T02:22:23;97981.84;;;14.30;76.13
77574;BME280;66710;48.868;9.080;2023-07-31T02:24:48;97983.22;;;14.27;76.18
77574;BME280;66710;48.868;9.080;2023-07-31T02:27:13;97980.03;;;14.39;75.47
77574;BME280;66710;48.868;9.080;2023-07-31T02:29:39;97979.81;;;14.35;75.48
77574;BME280;66710;48.868;9.080;2023-07-31T02:32:04;97976.56;;;14.33;75.40
77574;BME280;66710;48.868;9.080;2023-07-31T02:34:30;97963.38;;;14.35;75.26
77574;BME280;66710;48.868;9.080;2023-07-31T02:36:55;97973.41;;;14.26;75.88
77574;BME280;66710;48.868;9.080;2023-07-31T02:39:20;97972.56;;;14.26;75.78
77574;BME280;66710;48.868;9.080;2023-07-31T02:41:46;97973.97;;;14.23;76.37
77574;BME280;66710;48.868;9.080;2023-07-31T02:44:12;97969.16;;;14.15;76.43
77574;BME280;66710;48.868;9.080;2023-07-31T02:46:39;97968.88;;;14.16;76.58
77574;BME280;66710;48.868;9.080;2023-07-31T02:49:05;97969.16;;;14.15;76.87
77574;BME280;66710;48.868;9.080;2023-07-31T02:51:30;97956.59;;;14.14;76.73
77574;BME280;66710;48.868;9.080;2023-07-31T02:53:55;97966.50;;;14.10;77.01
77574;BME280;66710;48.868;9.080;2023-07-31T02:56:21;97963.47;;;14.11;77.07
77574;BME280;66710;48.868;9.080;2023-07-31T02:58:46;97969.22;;;14.10;77.22
77574;BME280;66710;48.868;9.080;2023-07-31T03:01:11;97968.13;;;14.11;76.95
77574;BME280;66710;48.868;9.080;2023-07-31T03:03:36;97973.47;;;14.02;77.47
77574;BME280;66710;48.868;9.080;2023-07-31T03:06:02;97969.31;;;14.04;77.22
77574;BME280;66710;48.868;9.080;2023-07-31T03:08:27;97978.06;;;14.07;76.97
77574;BME280;66710;48.868;9.080;2023-07-31T03:10:52;97983.63;;;14.01;77.13
77574;BME280;66710;48.868;9.080;2023-07-31T03:13:18;97979.91;;;14.11;76.55
77574;BME280;66710;48.868;9.080;2023-07-31T03:15:43;97973.03;;;14.14;75.95
77574;BME280;66710;48.868;9.080;2023-07-31T03:18:09;97964.59;;;14.10;76.33
77574;BME280;66710;48.868;9.080;2023-07-31T03:20:34;97962.00;;;14.19;75.72
77574;BME280;66710;48.868;9.080;2023-07-31T03:22:59;97961.88;;;14.24;75.59
77574;BME280;66710;48.868;9.080;2023-07-31T03:25:24;97972.47;;;14.31;75.07
77574;BME280;66710;48.868;9.080;2023-07-31T03:27:50;97982.34;;;14.32;74.96
77574;BME280;66710;48.868;9.080;2023-07-31T03:30:15;97974.63;;;14.34;74.54
77574;BME280;66710;48.868;9.080;2023-07-31T03:32:41;97971.38;;;14.32;74.52
77574;BME280;66710;48.868;9.080;2023-07-31T03:35:06;97972.41;;;14.36;74.35
77574;BME280;66710;48.868;9.080;2023-07-31T03:37:31;97969.00;;;14.25;74.92
77574;BME280;66710;48.868;9.080;2023-07-31T03:39:57;97966.78;;;14.27;74.70
77574;BME280;66710;48.868;9.080;2023-07-31T03:42:22;97972.97;;;14.19;75.35
77574;BME280;66710;48.868;9.080;2023-07-31T03:44:47;97980.13;;;14.15;75.24
77574;BME280;66710;48.868;9.080;2023-07-31T03:47:13;97982.94;;;14.10;75.53
77574;BME280;66710;48.868;9.080;2023-07-31T03:49:38;97985.16;;;14.08;75.91
77574;BME280;66710;48.868;9.080;2023-07-31T03:52:03;97970.88;;;14.11;75.47
77574;BME280;66710;48.868;9.080;2023-07-31T03:54:29;97971.09;;;14.14;75.28
77574;BME280;66710;48.868;9.080;2023-07-31T03:56:55;97974.13;;;14.13;75.64
77574;BME280;66710;48.868;9.080;2023-07-31T03:59:20;97971.31;;;14.18;75.21
77574;BME280;66710;48.868;9.080;2023-07-31T04:01:45;97969.66;;;14.17;75.17
77574;BME280;66710;48.868;9.080;2023-07-31T04:04:11;97964.41;;;14.20;74.97
77574;BME280;66710;48.868;9.080;2023-07-31T04:06:36;97962.81;;;14.19;74.92
77574;BME280;66710;48.868;9.080;2023-07-31T04:09:02;97966.72;;;14.32;74.17
77574;BME280;66710;48.868;9.080;2023-07-31T04:11:27;97966.19;;;14.30;74.74
77574;BME280;66710;48.868;9.080;2023-07-31T04:13:53;97971.09;;;14.33;74.32
77574;BME280;66710;48.868;9.080;2023-07-31T04:16:18;97966.94;;;14.36;73.93
77574;BME280;66710;48.868;9.080;2023-07-31T04:18:43;97963.69;;;14.34;74.17
77574;BME280;66710;48.868;9.080;2023-07-31T04:21:09;97963.59;;;14.39;73.86
77574;BME280;66710;48.868;9.080;2023-07-31T04:23:35;97966.34;;;14.39;74.02
77574;BME280;66710;48.868;9.080;2023-07-31T04:26:00;97961.88;;;14.43;73.98
77574;BME280;66710;48.868;9.080;2023-07-31T04:28:25;97960.47;;;14.46;73.74
77574;BME280;66710;48.868;9.080;2023-07-31T04:30:51;97956.03;;;14.50;73.24
77574;BME280;66710;48.868;9.080;2023-07-31T04:33:16;97961.41;;;14.55;73.11
77574;BME280;66710;48.868;9.080;2023-07-31T04:35:41;97954.50;;;14.57;72.94
77574;BME280;66710;48.868;9.080;2023-07-31T04:38:07;97961.13;;;14.56;73.56
77574;BME280;66710;48.868;9.080;2023-07-31T04:40:32;97962.38;;;14.64;72.89
77574;BME280;66710;48.868;9.080;2023-07-31T04:42:57;97956.53;;;14.71;72.30
77574;BME280;66710;48.868;9.080;2023-07-31T04:45:23;97967.78;;;14.69;72.59
77574;BME280;66710;48.868;9.080;2023-07-31T04:47:48;97965.03;;;14.69;72.68
77574;BME280;66710;48.868;9.080;2023-07-31T04:50:13;97967.69;;;14.74;72.52
77574;BME280;66710;48.868;9.080;2023-07-31T04:52:39;97959.69;;;14.78;72.72
77574;BME280;66710;48.868;9.080;2023-07-31T04:55:04;97958.16;;;14.86;71.80
77574;BME280;66710;48.868;9.080;2023-07-31T04:57:29;97964.41;;;14.91;71.77
77574;BME280;66710;48.868;9.080;2023-07-31T04:59:55;97961.25;;;14.98;71.19
77574;BME280;66710;48.868;9.080;2023-07-31T05:02:20;97948.97;;;15.09;70.83
77574;BME280;66710;48.868;9.080;2023-07-31T05:04:46;97956.91;;;15.11;70.95
77574;BME280;66710;48.868;9.080;2023-07-31T05:07:11;97950.50;;;15.15;71.07
77574;BME280;66710;48.868;9.080;2023-07-31T05:09:36;97948.69;;;15.25;70.25
77574;BME280;66710;48.868;9.080;2023-07-31T05:12:04;97956.94;;;15.25;70.42
77574;BME280;66710;48.868;9.080;2023-07-31T05:14:30;97950.00;;;15.27;70.45
77574;BME280;66710;48.868;9.080;2023-07-31T05:16:55;97941.47;;;15.29;70.58
77574;BME280;66710;48.868;9.080;2023-07-31T05:19:20;97940.31;;;15.30;71.04
77574;BME280;66710;48.868;9.080;2023-07-31T05:21:46;97948.91;;;15.28;70.80
77574;BME280;66710;48.868;9.080;2023-07-31T05:24:11;97948.16;;;15.36;70.63
77574;BME280;66710;48.868;9.080;2023-07-31T05:26:36;97956.78;;;15.30;71.08
77574;BME280;66710;48.868;9.080;2023-07-31T05:29:03;97952.75;;;15.41;70.94
77574;BME280;66710;48.868;9.080;2023-07-31T05:31:28;97955.28;;;15.51;70.66
77574;BME280;66710;48.868;9.080;2023-07-31T05:33:54;97955.78;;;15.53;71.18
77574;BME280;66710;48.868;9.080;2023-07-31T05:36:19;97955.09;;;15.48;70.04
77574;BME280;66710;48.868;9.080;2023-07-31T05:38:44;97949.59;;;15.48;70.98
77574;BME280;66710;48.868;9.080;2023-07-31T05:41:11;97951.72;;;15.51;71.41
77574;BME280;66710;48.868;9.080;2023-07-31T05:43:37;97943.78;;;15.49;70.83
77574;BME280;66710;48.868;9.080;2023-07-31T05:46:02;97941.88;;;15.50;71.45
77574;BME280;66710;48.868;9.080;2023-07-31T05:48:27;97942.38;;;15.52;71.29
77574;BME280;66710;48.868;9.080;2023-07-31T05:50:53;97933.31;;;15.51;71.29
77574;BME280;66710;48.868;9.080;2023-07-31T05:53:18;97944.50;;;15.55;71.04
77574;BME280;66710;48.868;9.080;2023-07-31T05:55:43;97948.56;;;15.58;71.31
77574;BME280;66710;48.868;9.080;2023-07-31T05:58:09;97943.06;;;15.58;70.78
77574;BME280;66710;48.868;9.080;2023-07-31T06:00:34;97944.28;;;15.65;70.83
77574;BME280;66710;48.868;9.080;2023-07-31T06:02:59;97948.34;;;15.68;70.81
77574;BME280;66710;48.868;9.080;2023-07-31T06:05:25;97955.97;;;15.71;71.30
77574;BME280;66710;48.868;9.080;2023-07-31T06:07:51;97954.34;;;15.84;70.05
77574;BME280;66710;48.868;9.080;2023-07-31T06:10:16;97956.00;;;16.07;69.50
77574;BME280;66710;48.868;9.080;2023-07-31T06:12:41;97947.69;;;16.35;69.62
77574;BME280;66710;48.868;9.080;2023-07-31T06:15:07;97951.56;;;16.34;69.82
77574;BME280;66710;48.868;9.080;2023-07-31T06:17:32;97950.13;;;16.37;69.01
77574;BME280;66710;48.868;9.080;2023-07-31T06:19:58;97941.56;;;16.38;67.95
77574;BME280;66710;48.868;9.080;2023-07-31T06:22:23;97938.09;;;16.55;67.67
77574;BME280;66710;48.868;9.080;2023-07-31T06:24:48;97944.88;;;16.72;66.79
77574;BME280;66710;48.868;9.080;2023-07-31T06:27:14;97935.81;;;17.02;67.07
77574;BME280;66710;48.868;9.080;2023-07-31T06:29:39;97935.81;;;17.34;66.01
77574;BME280;66710;48.868;9.080;2023-07-31T06:32:04;97939.22;;;17.39;65.45
77574;BME280;66710;48.868;9.080;2023-07-31T06:34:30;97944.66;;;17.22;64.55
77574;BME280;66710;48.868;9.080;2023-07-31T06:36:56;97941.72;;;17.18;64.27
77574;BME280;66710;48.868;9.080;2023-07-31T06:39:21;97931.91;;;17.26;64.71
77574;BME280;66710;48.868;9.080;2023-07-31T06:41:46;97942.16;;;17.12;64.49
77574;BME280;66710;48.868;9.080;2023-07-31T06:44:12;97940.69;;;17.37;64.08
77574;BME280;66710;48.868;9.080;2023-07-31T06:46:37;97948.84;;;17.68;64.35
77574;BME280;66710;48.868;9.080;2023-07-31T06:49:03;97948.44;;;17.92;62.61
77574;BME280;66710;48.868;9.080;2023-07-31T06:51:28;97943.59;;;18.50;62.92
77574;BME280;66710;48.868;9.080;2023-07-31T06:53:53;97951.06;;;18.15;60.12
77574;BME280;66710;48.868;9.080;2023-07-31T06:56:18;97951.56;;;18.34;60.71
77574;BME280;66710;48.868;9.080;2023-07-31T06:58:44;97948.00;;;18.43;60.22
77574;BME280;66710;48.868;9.080;2023-07-31T07:01:09;97958.84;;;17.95;60.31
77574;BME280;66710;48.868;9.080;2023-07-31T07:03:34;97949.28;;;18.19;60.71
77574;BME280;66710;48.868;9.080;2023-07-31T07:06:00;97940.84;;;18.33;60.33
77574;BME280;66710;48.868;9.080;2023-07-31T07:08:25;97941.47;;;18.56;59.77
77574;BME280;66710;48.868;9.080;2023-07-31T07:10:50;97940.69;;;18.38;58.61
77574;BME280;66710;48.868;9.080;2023-07-31T07:13:16;97942.78;;;18.59;58.13
77574;BME280;66710;48.868;9.080;2023-07-31T07:15:43;97938.38;;;18.66;58.31
77574;BME280;66710;48.868;9.080;2023-07-31T07:18:08;97939.47;;;18.91;59.37
77574;BME280;66710;48.868;9.080;2023-07-31T07:20:35;97934.03;;;18.39;58.49
77574;BME280;66710;48.868;9.080;2023-07-31T07:23:00;97929.16;;;18.27;58.36
77574;BME280;66710;48.868;9.080;2023-07-31T07:25:26;97921.53;;;18.50;59.17
77574;BME280;66710;48.868;9.080;2023-07-31T07:27:51;97922.84;;;18.44;59.21
77574;BME280;66710;48.868;9.080;2023-07-31T07:30:16;97925.56;;;18.53;60.17
77574;BME280;66710;48.868;9.080;2023-07-31T07:32:42;97921.16;;;18.69;59.06
77574;BME280;66710;48.868;9.080;2023-07-31T07:35:08;97923.94;;;18.61;59.51
77574;BME280;66710;48.868;9.080;2023-07-31T07:37:33;97927.00;;;18.68;58.70
77574;BME280;66710;48.868;9.080;2023-07-31T07:39:59;97912.59;;;18.53;58.61
77574;BME280;66710;48.868;9.080;2023-07-31T07:42:24;97918.41;;;18.87;59.66
77574;BME280;66710;48.868;9.080;2023-07-31T07:44:49;97919.47;;;19.03;58.13
77574;BME280;66710;48.868;9.080;2023-07-31T07:47:15;97916.63;;;19.21;57.39
77574;BME280;66710;48.868;9.080;2023-07-31T07:49:40;97911.03;;;19.98;55.51
77574;BME280;66710;48.868;9.080;2023-07-31T07:52:05;97912.41;;;19.53;56.52
77574;BME280;66710;48.868;9.080;2023-07-31T07:54:31;97919.09;;;19.52;56.19
77574;BME280;66710;48.868;9.080;2023-07-31T07:56:57;97911.22;;;19.93;55.44
77574;BME280;66710;48.868;9.080;2023-07-31T07:59:22;97925.03;;;19.33;57.43
77574;BME280;66710;48.868;9.080;2023-07-31T08:01:48;97921.31;;;19.29;57.48
77574;BME280;66710;48.868;9.080;2023-07-31T08:04:13;97921.59;;;18.98;59.27
77574;BME280;66710;48.868;9.080;2023-07-31T08:06:38;97912.44;;;19.14;56.82
77574;BME280;66710;48.868;9.080;2023-07-31T08:09:04;97917.88;;;19.32;57.75
77574;BME280;66710;48.868;9.080;2023-07-31T08:11:32;97911.88;;;19.60;58.75
77574;BME280;66710;48.868;9.080;2023-07-31T08:13:57;97914.75;;;19.42;55.54
77574;BME280;66710;48.868;9.080;2023-07-31T08:16:22;97894.69;;;20.05;55.60
77574;BME280;66710;48.868;9.080;2023-07-31T08:18:48;97901.16;;;20.09;56.79
77574;BME280;66710;48.868;9.080;2023-07-31T08:21:13;97902.09;;;20.13;54.97
77574;BME280;66710;48.868;9.080;2023-07-31T08:23:39;97905.94;;;20.63;53.92
77574;BME280;66710;48.868;9.080;2023-07-31T08:26:04;97897.13;;;19.26;57.35
77574;BME280;66710;48.868;9.080;2023-07-31T08:28:29;97892.31;;;19.44;55.62
77574;BME280;66710;48.868;9.080;2023-07-31T08:30:54;97904.94;;;19.83;55.00
77574;BME280;66710;48.868;9.080;2023-07-31T08:33:20;97895.50;;;20.05;55.45
77574;BME280;66710;48.868;9.080;2023-07-31T08:35:45;97893.31;;;19.39;57.97
77574;BME280;66710;48.868;9.080;2023-07-31T08:38:12;97901.59;;;19.39;57.50
77574;BME280;66710;48.868;9.080;2023-07-31T08:40:37;97902.66;;;19.56;56.02
77574;BME280;66710;48.868;9.080;2023-07-31T08:43:07;97895.31;;;19.30;56.69
77574;BME280;66710;48.868;9.080;2023-07-31T08:45:32;97889.50;;;19.23;56.64
77574;BME280;66710;48.868;9.080;2023-07-31T08:47:58;97884.50;;;19.76;56.29
77574;BME280;66710;48.868;9.080;2023-07-31T08:50:24;97888.94;;;19.38;57.30
77574;BME280;66710;48.868;9.080;2023-07-31T08:52:51;97896.78;;;19.27;56.87
77574;BME280;66710;48.868;9.080;2023-07-31T08:55:17;97897.03;;;19.73;56.19
77574;BME280;66710;48.868;9.080;2023-07-31T08:57:43;97895.44;;;20.14;56.19
77574;BME280;66710;48.868;9.080;2023-07-31T09:00:10;97892.31;;;19.44;56.37
77574;BME280;66710;48.868;9.080;2023-07-31T09:02:50;97876.53;;;19.95;55.80
77574;BME280;66710;48.868;9.080;2023-07-31T09:05:17;97868.19;;;20.04;55.65
77574;BME280;66710;48.868;9.080;2023-07-31T09:07:45;97865.91;;;20.39;55.72
77574;BME280;66710;48.868;9.080;2023-07-31T09:10:12;97851.19;;;20.60;54.03
77574;BME280;66710;48.868;9.080;2023-07-31T09:12:37;97867.03;;;20.72;53.76
77574;BME280;66710;48.868;9.080;2023-07-31T09:15:03;97875.06;;;21.23;52.47
77574;BME280;66710;48.868;9.080;2023-07-31T09:17:30;97867.84;;;21.95;50.79
77574;BME280;66710;48.868;9.080;2023-07-31T09:19:56;97861.59;;;22.55;50.42
77574;BME280;66710;48.868;9.080;2023-07-31T09:22:34;97868.16;;;21.66;52.70
77574;BME280;66710;48.868;9.080;2023-07-31T09:25:19;97867.44;;;21.56;52.11
77574;BME280;66710;48.868;9.080;2023-07-31T09:30:14;97870.75;;;20.42;51.12
77574;BME280;66710;48.868;9.080;2023-07-31T09:32:39;97861.06;;;20.82;51.87
77574;BME280;66710;48.868;9.080;2023-07-31T09:35:22;97859.03;;;20.91;52.25
77574;BME280;66710;48.868;9.080;2023-07-31T09:37:49;97858.28;;;20.70;52.21
77574;BME280;66710;48.868;9.080;2023-07-31T09:40:31;97840.78;;;21.02;51.99
77574;BME280;66710;48.868;9.080;2023-07-31T09:43:02;97847.13;;;21.65;49.79
77574;BME280;66710;48.868;9.080;2023-07-31T09:45:28;97833.44;;;20.61;51.09
77574;BME280;66710;48.868;9.080;2023-07-31T09:47:55;97837.09;;;20.86;52.98
77574;BME280;66710;48.868;9.080;2023-07-31T09:50:22;97824.97;;;21.03;52.29
77574;BME280;66710;48.868;9.080;2023-07-31T09:52:47;97830.38;;;20.99;52.36
77574;BME280;66710;48.868;9.080;2023-07-31T09:55:13;97816.53;;;21.24;51.22
77574;BME280;66710;48.868;9.080;2023-07-31T09:57:43;97821.47;;;21.43;51.40
77574;BME280;66710;48.868;9.080;2023-07-31T10:00:10;97833.44;;;21.84;50.99
77574;BME280;66710;48.868;9.080;2023-07-31T10:02:36;97824.72;;;21.33;50.66
77574;BME280;66710;48.868;9.080;2023-07-31T10:05:03;97826.69;;;21.32;51.00
77574;BME280;66710;48.868;9.080;2023-07-31T10:07:30;97824.72;;;21.98;49.41
77574;BME280;66710;48.868;9.080;2023-07-31T10:09:57;97819.16;;;22.26;49.07
77574;BME280;66710;48.868;9.080;2023-07-31T10:12:26;97803.28;;;22.55;48.25
77574;BME280;66710;48.868;9.080;2023-07-31T10:14:54;97807.47;;;21.76;49.79
77574;BME280;66710;48.868;9.080;2023-07-31T10:17:20;97795.63;;;21.92;50.59
77574;BME280;66710;48.868;9.080;2023-07-31T10:19:46;97792.91;;;22.08;49.85
77574;BME280;66710;48.868;9.080;2023-07-31T10:22:12;97793.78;;;21.31;50.08
77574;BME280;66710;48.868;9.080;2023-07-31T10:24:38;97793.63;;;21.64;51.29
77574;BME280;66710;48.868;9.080;2023-07-31T10:27:04;97789.69;;;21.65;50.46
77574;BME280;66710;48.868;9.080;2023-07-31T10:29:30;97773.31;;;22.77;47.18
77574;BME280;66710;48.868;9.080;2023-07-31T10:31:58;97783.06;;;22.26;49.72
77574;BME280;66710;48.868;9.080;2023-07-31T10:34:24;97784.69;;;21.83;49.13
77574;BME280;66710;48.868;9.080;2023-07-31T10:36:50;97778.28;;;21.42;49.04
77574;BME280;66710;48.868;9.080;2023-07-31T10:39:35;97789.81;;;21.56;50.88
77574;BME280;66710;48.868;9.080;2023-07-31T10:42:12;97790.50;;;21.66;48.06
77574;BME280;66710;48.868;9.080;2023-07-31T10:44:37;97798.44;;;21.02;49.44
77574;BME280;66710;48.868;9.080;2023-07-31T10:47:03;97800.78;;;21.65;49.00
77574;BME280;66710;48.868;9.080;2023-07-31T10:49:29;97794.72;;;21.23;49.51
77574;BME280;66710;48.868;9.080;2023-07-31T10:51:56;97788.03;;;21.76;48.28
77574;BME280;66710;48.868;9.080;2023-07-31T10:54:22;97790.59;;;22.26;48.34
77574;BME280;66710;48.868;9.080;2023-07-31T10:56:50;97777.88;;;22.25;47.95
77574;BME280;66710;48.868;9.080;2023-07-31T10:59:15;97792.41;;;21.77;48.40
77574;BME280;66710;48.868;9.080;2023-07-31T11:01:55;97767.00;;;22.04;47.50
77574;BME280;66710;48.868;9.080;2023-07-31T11:04:26;97771.06;;;21.78;47.86
77574;BME280;66710;48.868;9.080;2023-07-31T11:06:59;97764.59;;;22.46;46.31
77574;BME280;66710;48.868;9.080;2023-07-31T11:09:31;97764.59;;;22.46;46.07
77574;BME280;66710;48.868;9.080;2023-07-31T11:11:57;97765.34;;;22.15;48.52
77574;BME280;66710;48.868;9.080;2023-07-31T11:14:23;97772.84;;;21.58;49.43
77574;BME280;66710;48.868;9.080;2023-07-31T11:16:52;97773.03;;;21.65;48.14
77574;BME280;66710;48.868;9.080;2023-07-31T11:19:24;97766.16;;;21.87;48.71
77574;BME280;66710;48.868;9.080;2023-07-31T11:21:50;97760.03;;;21.53;47.52
77574;BME280;66710;48.868;9.080;2023-07-31T11:24:15;97759.56;;;21.92;47.85
77574;BME280;66710;48.868;9.080;2023-07-31T11:26:51;97759.53;;;22.20;48.39
77574;BME280;66710;48.868;9.080;2023-07-31T11:29:17;97757.59;;;21.92;47.56
77574;BME280;66710;48.868;9.080;2023-07-31T11:31:43;97759.13;;;21.49;49.54
77574;BME280;66710;48.868;9.080;2023-07-31T11:34:08;97748.41;;;21.76;49.33
77574;BME280;66710;48.868;9.080;2023-07-31T11:36:34;97748.13;;;21.81;49.29
77574;BME280;66710;48.868;9.080;2023-07-31T11:39:06;97745.84;;;21.55;49.27
77574;BME280;66710;48.868;9.080;2023-07-31T11:41:32;97754.66;;;21.73;49.15
77574;BME280;66710;48.868;9.080;2023-07-31T11:44:01;97742.91;;;21.92;49.79
77574;BME280;66710;48.868;9.080;2023-07-31T11:46:29;97744.09;;;22.07;48.67
77574;BME280;66710;48.868;9.080;2023-07-31T11:48:59;97746.19;;;21.82;48.85
77574;BME280;66710;48.868;9.080;2023-07-31T11:51:24;97746.66;;;21.84;47.75
77574;BME280;66710;48.868;9.080;2023-07-31T11:53:54;97733.56;;;21.84;47.41
77574;BME280;66710;48.868;9.080;2023-07-31T11:56:21;97727.44;;;22.07;47.46
77574;BME280;66710;48.868;9.080;2023-07-31T11:58:52;97724.34;;;21.80;47.81
77574;BME280;66710;48.868;9.080;2023-07-31T12:01:19;97725.59;;;21.83;48.35
77574;BME280;66710;48.868;9.080;2023-07-31T12:03:46;97728.50;;;22.02;48.18
77574;BME280;66710;48.868;9.080;2023-07-31T12:06:12;97720.09;;;21.70;48.44
77574;BME280;66710;48.868;9.080;2023-07-31T12:08:37;97715.59;;;21.78;49.17
77574;BME280;66710;48.868;9.080;2023-07-31T12:11:08;97705.63;;;21.77;48.97
77574;BME280;66710;48.868;9.080;2023-07-31T12:13:36;97714.31;;;21.47;49.35
77574;BME280;66710;48.868;9.080;2023-07-31T12:16:03;97717.59;;;21.65;49.58
77574;BME280;66710;48.868;9.080;2023-07-31T12:18:33;97712.31;;;21.60;49.09
77574;BME280;66710;48.868;9.080;2023-07-31T12:21:00;97717.03;;;21.59;49.13
77574;BME280;66710;48.868;9.080;2023-07-31T12:23:30;97710.34;;;21.61;49.32
77574;BME280;66710;48.868;9.080;2023-07-31T12:26:06;97712.75;;;21.90;48.20
77574;BME280;66710;48.868;9.080;2023-07-31T12:31:12;97695.34;;;21.77;48.43
77574;BME280;66710;48.868;9.080;2023-07-31T12:33:39;97691.22;;;21.71;46.80
77574;BME280;66710;48.868;9.080;2023-07-31T12:36:08;97686.09;;;21.57;48.07
77574;BME280;66710;48.868;9.080;2023-07-31T12:38:34;97680.19;;;21.59;48.59
77574;BME280;66710;48.868;9.080;2023-07-31T12:40:59;97693.31;;;21.46;48.13
77574;BME280;66710;48.868;9.080;2023-07-31T12:43:24;97686.25;;;21.36;49.09
77574;BME280;66710;48.868;9.080;2023-07-31T12:45:50;97688.13;;;21.32;48.23
77574;BME280;66710;48.868;9.080;2023-07-31T12:48:15;97681.19;;;21.67;48.62
77574;BME280;66710;48.868;9.080;2023-07-31T12:50:40;97674.34;;;21.76;47.26
77574;BME280;66710;48.868;9.080;2023-07-31T12:53:06;97672.41;;;22.25;47.99
77574;BME280;66710;48.868;9.080;2023-07-31T12:55:32;97666.63;;;22.30;46.83
77574;BME280;66710;48.868;9.080;2023-07-31T12:58:00;97659.84;;;22.27;48.21
77574;BME280;66710;48.868;9.080;2023-07-31T13:00:25;97663.66;;;22.39;46.53
77574;BME280;66710;48.868;9.080;2023-07-31T13:02:51;97651.84;;;22.10;48.00
77574;BME280;66710;48.868;9.080;2023-07-31T13:05:16;97648.81;;;22.31;48.47